Time;durP1;ratioP1;P1;durP2;ratioP2;P2;SDS_P1;SDS_P2;PMS_P1;PMS_P2;Temp;Humidity;BMP_temperature;BMP_pressure;BME280_temperature;BME280_humidity;BME280_pressure;Samples;Min_cycle;Max_cycle;Signal;HPM_P1;HPM_P2
2022/07/28 00:00:14;;;;;;;4.68;4.05;;;;;;;27.75;53.24;100704.88;5011733;28;20386;-76
2022/07/28 00:02:41;;;;;;;6.93;4.75;;;;;;;27.78;53.10;100706.38;5011097;28;20053;-76
2022/07/28 00:05:09;;;;;;;4.13;3.72;;;;;;;27.78;52.87;100709.09;5011826;28;20049;-76
2022/07/28 00:07:36;;;;;;;5.93;4.47;;;;;;;27.78;52.78;100704.47;5011839;28;20053;-76
2022/07/28 00:10:04;;;;;;;4.20;3.80;;;;;;;27.79;52.72;100705.31;5012207;28;20046;-77
2022/07/28 00:12:32;;;;;;;6.85;4.10;;;;;;;27.79;52.97;100708.91;5011743;28;20061;-76
2022/07/28 00:15:00;;;;;;;5.05;4.10;;;;;;;27.81;53.34;100703.28;5011414;28;20053;-76
2022/07/28 00:17:27;;;;;;;6.05;4.28;;;;;;;27.80;53.28;100699.72;5011987;28;20052;-76
2022/07/28 00:19:54;;;;;;;4.30;3.90;;;;;;;27.81;53.42;100698.66;5012018;28;20046;-77
2022/07/28 00:22:22;;;;;;;4.38;3.97;;;;;;;27.82;53.27;100697.63;5011549;28;20042;-77
2022/07/28 00:24:49;;;;;;;4.70;4.07;;;;;;;27.82;53.26;100702.22;5010623;28;20050;-77
2022/07/28 00:27:17;;;;;;;6.03;4.72;;;;;;;27.83;53.05;100707.50;5011763;28;20050;-76
2022/07/28 00:29:45;;;;;;;4.80;3.85;;;;;;;27.84;53.39;100697.47;5052493;28;20046;-77
2022/07/28 00:32:19;;;;;;;5.25;4.75;;;;;;;27.84;53.29;100706.44;5114916;28;20051;-77
2022/07/28 00:34:47;;;;;;;4.43;4.03;;;;;;;27.85;53.06;100701.84;5050728;27;20049;-77
2022/07/28 00:37:14;;;;;;;5.85;4.53;;;;;;;27.85;53.43;100708.13;5011465;28;20049;-77
2022/07/28 00:39:42;;;;;;;4.93;4.32;;;;;;;27.86;53.23;100711.69;5011275;28;20046;-77
2022/07/28 00:42:11;;;;;;;5.38;4.57;;;;;;;27.86;52.95;100711.69;5010604;28;20053;-77
2022/07/28 00:44:40;;;;;;;5.10;4.55;;;;;;;27.87;53.20;100718.81;5011336;28;20050;-77
2022/07/28 00:47:08;;;;;;;5.47;4.25;;;;;;;27.87;53.10;100721.53;5011856;28;20053;-77
2022/07/28 00:49:35;;;;;;;5.00;3.92;;;;;;;27.90;53.58;100715.72;5011107;28;20068;-77
2022/07/28 00:52:04;;;;;;;4.93;4.18;;;;;;;27.90;53.62;100712.16;5010103;28;20054;-77
2022/07/28 00:54:32;;;;;;;6.38;4.45;;;;;;;27.90;53.22;100704.00;5010941;28;20045;-77
2022/07/28 00:57:00;;;;;;;4.40;4.00;;;;;;;27.90;53.28;100704.84;5010198;28;20381;-77
2022/07/28 00:59:27;;;;;;;5.00;4.50;;;;;;;27.91;53.42;100711.94;5010873;28;20417;-77
2022/07/28 01:01:55;;;;;;;5.00;3.95;;;;;;;27.92;53.31;100704.66;5011536;28;20072;-77
2022/07/28 01:04:24;;;;;;;4.70;4.20;;;;;;;27.92;53.03;100705.50;5011117;28;20045;-77
2022/07/28 01:07:11;;;;;;;4.35;3.95;;;;;;;27.92;53.19;100708.22;5009032;28;20054;-77
2022/07/28 01:10:02;;;;;;;4.95;4.45;;;;;;;27.93;53.11;100712.63;5009644;28;20064;-77
2022/07/28 01:12:35;;;;;;;4.68;3.97;;;;;;;27.94;53.22;100722.47;5010948;28;20050;-77
2022/07/28 01:15:42;;;;;;;5.55;4.43;;;;;;;27.94;53.21;100725.19;5088473;28;20051;-77
2022/07/28 01:18:16;;;;;;;4.95;4.43;;;;;;;27.95;53.35;100720.59;5114162;28;20044;-77
2022/07/28 01:20:49;;;;;;;5.20;4.70;;;;;;;27.94;53.59;100718.91;5114150;28;20059;-77
2022/07/28 01:23:16;;;;;;;6.18;4.20;;;;;;;27.96;53.31;100727.72;5114008;28;20055;-78
2022/07/28 01:25:59;;;;;;;6.55;4.93;;;;;;;27.95;53.60;100726.03;5113893;28;20040;-77
2022/07/28 01:28:58;;;;;;;5.00;4.10;;;;;;;27.97;53.36;100718.53;5112065;28;20058;-78
2022/07/28 01:31:29;;;;;;;4.95;4.07;;;;;;;27.97;53.12;100711.19;5112987;28;20047;-77
2022/07/28 01:34:04;;;;;;;6.07;4.50;;;;;;;27.97;53.35;100716.66;5053210;28;20049;-77
2022/07/28 01:36:54;;;;;;;4.40;3.90;;;;;;;27.96;53.69;100709.53;5008987;28;20041;-77
2022/07/28 01:39:24;;;;;;;6.00;4.15;;;;;;;27.98;53.38;100712.03;5010193;28;20057;-76
2022/07/28 01:41:54;;;;;;;7.22;4.65;;;;;;;27.98;53.70;100712.88;5010451;28;20053;-77
2022/07/28 01:44:23;;;;;;;4.50;4.10;;;;;;;27.98;53.63;100717.47;5010332;28;20049;-77
2022/07/28 01:46:52;;;;;;;5.20;4.70;;;;;;;27.99;53.53;100717.28;5010462;28;20045;-78
2022/07/28 01:49:22;;;;;;;4.65;4.25;;;;;;;28.00;53.45;100723.59;5010399;28;20050;-78
2022/07/28 01:51:51;;;;;;;6.65;4.90;;;;;;;28.00;53.61;100718.16;5010121;28;20042;-78
2022/07/28 01:54:20;;;;;;;5.80;4.30;;;;;;;28.00;53.36;100726.31;5010462;28;20061;-78
2022/07/28 01:56:50;;;;;;;4.40;3.97;;;;;;;28.00;53.83;100720.88;5007928;28;20049;-78
2022/07/28 01:59:18;;;;;;;4.50;4.10;;;;;;;28.01;53.78;100723.38;4998458;28;20065;-78
2022/07/28 02:01:47;;;;;;;5.20;4.38;;;;;;;28.01;53.71;100723.38;4991456;28;20482;-78
2022/07/28 02:04:19;;;;;;;5.45;3.95;;;;;;;28.01;53.23;100730.72;4991597;28;20058;-78
2022/07/28 02:06:47;;;;;;;5.70;4.53;;;;;;;28.01;53.58;100726.09;4989533;28;20410;-78
2022/07/28 02:09:16;;;;;;;5.03;4.53;;;;;;;28.01;53.55;100728.84;4989682;28;20046;-77
2022/07/28 02:11:45;;;;;;;4.85;4.35;;;;;;;28.02;53.58;100727.78;4990629;28;20047;-78
2022/07/28 02:14:16;;;;;;;4.80;4.40;;;;;;;28.03;53.78;100723.19;4990893;28;20073;-77
2022/07/28 02:16:48;;;;;;;4.50;4.05;;;;;;;28.03;53.39;100731.34;4990653;28;20046;-78
2022/07/28 02:19:18;;;;;;;5.10;4.32;;;;;;;28.03;53.49;100723.19;4990949;28;20054;-78
2022/07/28 02:21:47;;;;;;;5.43;4.70;;;;;;;28.04;53.83;100727.63;4990978;28;20050;-78
2022/07/28 02:24:18;;;;;;;4.97;4.47;;;;;;;28.03;53.50;100715.84;4991463;28;20042;-78
2022/07/28 02:26:52;;;;;;;5.10;4.10;;;;;;;28.04;53.69;100717.56;4989610;28;20062;-78
2022/07/28 02:29:24;;;;;;;6.68;4.35;;;;;;;28.04;53.70;100714.00;4990044;28;20073;-78
2022/07/28 02:32:18;;;;;;;5.80;4.57;;;;;;;28.05;53.85;100718.41;4991192;28;20046;-78
2022/07/28 02:35:00;;;;;;;5.10;4.60;;;;;;;28.05;53.83;100715.69;4990525;28;20069;-78
2022/07/28 02:37:35;;;;;;;4.90;4.40;;;;;;;28.06;53.39;100711.91;4990955;28;20528;-78
2022/07/28 02:40:05;;;;;;;4.90;4.35;;;;;;;28.06;53.64;100712.75;4990120;28;20481;-78
2022/07/28 02:42:35;;;;;;;4.40;3.95;;;;;;;28.06;53.50;100711.91;4990087;28;20485;-78
2022/07/28 02:45:05;;;;;;;7.13;4.70;;;;;;;28.06;53.94;100714.66;4989431;28;20050;-78
2022/07/28 02:47:39;;;;;;;6.55;4.68;;;;;;;28.06;53.49;100718.22;4990239;28;20046;-78
2022/07/28 02:50:09;;;;;;;5.45;4.00;;;;;;;28.06;53.66;100718.22;4992862;28;20054;-76
2022/07/28 02:52:38;;;;;;;5.20;4.57;;;;;;;28.07;54.07;100713.59;4993883;28;20050;-76
2022/07/28 02:55:06;;;;;;;5.65;5.07;;;;;;;28.06;54.32;100715.47;4993566;28;20045;-76
2022/07/28 02:57:36;;;;;;;7.32;5.00;;;;;;;28.07;54.20;100717.16;4998719;28;20042;-76
2022/07/28 03:00:04;;;;;;;6.93;5.25;;;;;;;28.06;54.54;100714.66;5011512;28;20038;-76
2022/07/28 03:02:35;;;;;;;5.70;4.72;;;;;;;28.05;54.52;100712.97;5012746;28;20500;-77
2022/07/28 03:05:03;;;;;;;7.03;4.70;;;;;;;28.05;54.14;100716.53;5012896;28;20061;-76
2022/07/28 03:07:37;;;;;;;7.80;5.45;;;;;;;28.04;54.49;100723.00;5011856;28;20053;-77
2022/07/28 03:10:24;;;;;;;6.00;5.13;;;;;;;28.05;54.67;100721.13;5013183;28;20408;-77
2022/07/28 03:13:06;;;;;;;6.43;5.10;;;;;;;28.03;54.35;100725.91;5012712;28;20057;-77
2022/07/28 03:15:33;;;;;;;;;;;;;;;28.03;54.57;100728.63;5091921;28;20372;-77
2022/07/28 03:18:02;;;;;;;6.28;5.47;;;;;;;28.03;54.66;100725.91;5115361;28;20397;-77
2022/07/28 03:20:30;;;;;;;7.20;5.18;;;;;;;28.02;54.09;100733.22;5116413;28;20048;-77
2022/07/28 03:22:58;;;;;;;7.72;5.70;;;;;;;28.01;53.89;100730.72;5149265;27;20487;-77
2022/07/28 03:25:33;;;;;;;7.22;6.00;;;;;;;28.01;54.04;100733.44;5116152;28;20047;-77
2022/07/28 03:28:06;;;;;;;7.93;5.50;;;;;;;28.00;54.08;100729.03;5116109;28;20044;-78
2022/07/28 03:30:40;;;;;;;6.22;5.55;;;;;;;27.99;54.06;100722.72;5116129;28;20391;-78
2022/07/28 03:33:08;;;;;;;7.32;6.15;;;;;;;27.99;54.35;100725.44;5091678;28;20054;-78
2022/07/28 03:35:38;;;;;;;7.43;6.00;;;;;;;27.99;53.80;100725.44;5012757;28;20393;-78
2022/07/28 03:38:24;;;;;;;7.22;5.80;;;;;;;27.99;54.17;100725.44;5012352;28;20046;-78
2022/07/28 03:40:54;;;;;;;7.82;5.90;;;;;;;28.00;53.80;100726.31;5012659;28;20045;-78
2022/07/28 03:43:24;;;;;;;7.10;5.85;;;;;;;27.99;53.58;100730.88;5029761;27;20054;-78
2022/07/28 03:45:51;;;;;;;6.82;6.07;;;;;;;27.98;53.53;100723.75;5012195;28;20046;-78
2022/07/28 03:48:23;;;;;;;8.20;6.28;;;;;;;27.98;53.38;100731.09;5012204;28;20050;-78
2022/07/28 03:50:50;;;;;;;7.33;6.00;;;;;;;27.97;53.48;100727.53;5010899;28;20062;-78
2022/07/28 03:53:20;;;;;;;6.82;6.15;;;;;;;27.97;53.09;100727.53;5012005;28;20053;-78
2022/07/28 03:55:52;;;;;;;6.55;5.57;;;;;;;27.97;53.12;100732.13;5010718;28;20061;-78
2022/07/28 03:58:21;;;;;;;8.30;6.10;;;;;;;27.96;53.20;100734.00;5010806;28;20034;-78
2022/07/28 04:00:55;;;;;;;6.25;5.65;;;;;;;27.97;53.12;100726.69;5004319;28;20057;-78
2022/07/28 04:03:24;;;;;;;7.47;5.78;;;;;;;27.95;53.47;100726.88;5012261;28;20050;-78
2022/07/28 04:06:11;;;;;;;7.65;6.13;;;;;;;27.94;53.07;100732.50;5010264;28;20072;-78
2022/07/28 04:08:39;;;;;;;6.63;6.03;;;;;;;27.92;53.54;100738.16;5012195;28;20072;-78
2022/07/28 04:11:06;;;;;;;9.60;6.40;;;;;;;27.93;53.50;100730.81;5011717;28;20401;-77
2022/07/28 04:13:35;;;;;;;6.57;5.80;;;;;;;27.92;53.62;100726.44;5011925;28;20401;-78
2022/07/28 04:16:05;;;;;;;6.35;5.75;;;;;;;27.91;53.25;100735.59;5012670;28;20053;-76
2022/07/28 04:18:33;;;;;;;5.93;5.32;;;;;;;27.91;53.48;100738.31;5011645;28;20038;-78
2022/07/28 04:21:01;;;;;;;8.30;5.35;;;;;;;27.92;53.50;100734.59;5011589;28;20061;-78
2022/07/28 04:23:29;;;;;;;6.97;6.15;;;;;;;27.91;53.41;100749.19;5012163;28;20149;-78
2022/07/28 04:25:57;;;;;;;6.03;5.45;;;;;;;27.91;53.66;100741.03;5011733;28;20141;-78
2022/07/28 04:28:24;;;;;;;7.90;5.93;;;;;;;27.90;53.34;100742.09;5011506;28;20485;-75
2022/07/28 04:30:52;;;;;;;6.70;6.03;;;;;;;27.92;53.38;100757.19;5013970;28;20052;-76
2022/07/28 04:33:19;;;;;;;6.32;5.72;;;;;;;27.91;53.36;100749.19;5010392;28;20507;-78
2022/07/28 04:35:46;;;;;;;6.75;5.65;;;;;;;27.90;53.48;100742.94;5011268;28;20055;-78
2022/07/28 04:38:16;;;;;;;8.95;6.57;;;;;;;27.91;53.27;100752.75;5010435;28;20049;-77
2022/07/28 04:40:47;;;;;;;6.07;5.55;;;;;;;27.92;53.23;100753.63;5011789;28;20049;-78
2022/07/28 04:43:14;;;;;;;6.22;5.63;;;;;;;27.93;53.50;100756.16;5011322;28;20060;-78
2022/07/28 04:45:42;;;;;;;6.75;6.13;;;;;;;27.93;53.42;100755.31;5010064;28;20061;-78
2022/07/28 04:48:22;;;;;;;7.47;5.70;;;;;;;27.93;53.29;100758.88;5011397;28;20072;-78
2022/07/28 04:50:51;;;;;;;6.68;5.75;;;;;;;27.95;53.43;100758.69;5010162;28;20054;-78
2022/07/28 04:53:21;;;;;;;7.35;6.50;;;;;;;27.95;53.58;100751.34;5011655;28;20390;-78
2022/07/28 04:55:50;;;;;;;7.43;6.72;;;;;;;27.95;53.39;100747.78;5011642;28;20050;-78
2022/07/28 04:58:19;;;;;;;7.03;6.32;;;;;;;27.94;53.69;100757.84;5012631;28;20053;-78
2022/07/28 05:00:49;;;;;;;6.65;5.85;;;;;;;27.96;53.42;100758.50;5011248;28;20042;-78
2022/07/28 05:03:17;;;;;;;8.80;6.70;;;;;;;27.96;53.14;100763.94;4992461;28;20059;-78
2022/07/28 05:05:45;;;;;;;8.85;6.70;;;;;;;27.97;53.35;100759.34;4994065;28;20058;-78
2022/07/28 05:08:22;;;;;;;7.50;6.70;;;;;;;27.97;52.71;100767.50;4993525;28;20544;-78
2022/07/28 05:10:54;;;;;;;7.63;6.30;;;;;;;27.96;52.54;100761.22;4991859;28;20050;-78
2022/07/28 05:13:22;;;;;;;7.50;6.60;;;;;;;27.98;52.61;100769.19;4991037;28;20046;-78
2022/07/28 05:15:50;;;;;;;9.80;7.00;;;;;;;27.97;52.46;100765.63;5064393;28;20426;-78
2022/07/28 05:18:17;;;;;;;8.00;7.20;;;;;;;27.98;52.39;100774.63;5113846;28;20042;-78
2022/07/28 05:20:44;;;;;;;8.70;6.60;;;;;;;27.97;52.45;100768.34;5113737;28;20050;-78
2022/07/28 05:23:12;;;;;;;8.35;6.70;;;;;;;27.97;52.59;100779.22;5113848;28;20043;-78
2022/07/28 05:25:39;;;;;;;6.82;6.22;;;;;;;27.98;52.32;100772.75;5113575;28;20048;-78
2022/07/28 05:28:06;;;;;;;9.07;6.63;;;;;;;27.97;52.36;100773.78;5113658;28;20036;-78
2022/07/28 05:30:35;;;;;;;7.68;6.97;;;;;;;27.98;52.79;100775.47;5112699;28;20078;-78
2022/07/28 05:33:03;;;;;;;8.02;7.32;;;;;;;27.97;52.94;100768.34;5092269;28;20046;-78
2022/07/28 05:35:30;;;;;;;10.48;7.72;;;;;;;27.98;52.39;100780.91;5010955;28;20401;-78
2022/07/28 05:37:58;;;;;;;8.80;7.07;;;;;;;27.99;52.30;100781.75;5010476;28;20045;-78
2022/07/28 05:40:26;;;;;;;8.27;6.75;;;;;;;27.98;52.28;100786.34;5010558;28;20049;-78
2022/07/28 05:42:53;;;;;;;8.75;6.88;;;;;;;27.99;52.44;100781.75;5010434;28;20038;-78
2022/07/28 05:45:20;;;;;;;7.30;6.28;;;;;;;27.99;52.47;100784.47;5010383;28;20056;-78
2022/07/28 05:47:51;;;;;;;8.93;7.40;;;;;;;27.99;52.45;100785.31;5010402;28;20405;-78
2022/07/28 05:50:21;;;;;;;7.80;6.72;;;;;;;27.99;52.48;100788.03;5010608;28;20057;-78
2022/07/28 05:52:50;;;;;;;7.80;6.95;;;;;;;28.00;52.40;100784.31;5010702;28;20397;-78
2022/07/28 05:55:18;;;;;;;8.02;7.22;;;;;;;28.00;52.62;100784.31;5010577;28;20481;-78
2022/07/28 05:57:45;;;;;;;8.50;7.03;;;;;;;28.01;52.26;100785.97;5010789;28;20044;-78
2022/07/28 06:00:15;;;;;;;8.43;7.25;;;;;;;28.02;52.59;100786.81;5010029;28;20046;-78
2022/07/28 06:02:44;;;;;;;12.00;8.00;;;;;;;28.02;52.25;100792.25;4992208;28;20050;-79
2022/07/28 06:05:12;;;;;;;8.10;6.75;;;;;;;28.01;52.59;100787.84;5011171;28;20046;-79
2022/07/28 06:07:40;;;;;;;10.27;7.18;;;;;;;28.01;52.14;100787.84;5008640;28;20065;-78
2022/07/28 06:10:13;;;;;;;10.55;7.07;;;;;;;28.02;52.09;100786.81;5010266;28;20050;-77
2022/07/28 06:12:46;;;;;;;8.38;6.60;;;;;;;28.03;52.49;100789.34;5008953;28;20046;-77
2022/07/28 06:15:17;;;;;;;10.98;7.00;;;;;;;28.03;52.58;100777.59;5010124;28;20060;-78
2022/07/28 06:17:45;;;;;;;8.73;7.38;;;;;;;28.04;52.46;100776.59;5010156;28;20046;-78
2022/07/28 06:20:13;;;;;;;8.52;7.55;;;;;;;28.04;52.30;100782.88;5010198;28;20049;-78
2022/07/28 06:22:53;;;;;;;8.88;7.57;;;;;;;28.04;52.59;100779.31;5010605;28;20050;-78
2022/07/28 06:25:27;;;;;;;8.38;7.13;;;;;;;28.04;52.52;100782.03;5013779;28;20072;-78
2022/07/28 06:27:59;;;;;;;11.45;8.95;;;;;;;28.01;53.26;100783.25;5012422;28;20493;-79
2022/07/28 06:30:27;;;;;;;12.93;10.38;;;;;;;27.99;52.85;100784.47;5013353;28;20050;-78
2022/07/28 06:32:54;;;;;;;14.95;9.43;;;;;;;27.94;52.64;100784.22;5086236;28;20077;-78
2022/07/28 06:35:23;;;;;;;11.27;8.07;;;;;;;27.92;52.76;100792.56;5117305;28;20370;-79
2022/07/28 06:37:52;;;;;;;9.45;7.63;;;;;;;27.90;53.14;100789.19;5116089;28;20047;-83
2022/07/28 06:40:21;;;;;;;11.80;8.32;;;;;;;27.92;53.55;100789.84;5117972;28;20055;-79
2022/07/28 06:42:49;;;;;;;11.20;10.00;;;;;;;27.87;52.87;100799.59;5117851;28;20433;-79
2022/07/28 06:45:17;;;;;;;10.75;9.65;;;;;;;27.78;52.35;100802.41;5117580;28;20055;-80
2022/07/28 06:47:48;;;;;;;11.55;8.38;;;;;;;27.75;52.67;100807.38;5117143;28;20054;-79
2022/07/28 06:50:16;;;;;;;8.20;7.38;;;;;;;27.67;51.37;100807.44;5117177;28;20058;-79
2022/07/28 06:52:56;;;;;;;7.47;6.78;;;;;;;27.64;51.83;100805.97;5100318;28;20049;-80
2022/07/28 06:55:26;;;;;;;9.10;7.60;;;;;;;27.64;52.21;100802.41;5012219;28;20046;-80
2022/07/28 06:58:02;;;;;;;8.98;7.65;;;;;;;27.63;52.41;100815.16;5011467;28;20398;-79
2022/07/28 07:00:30;;;;;;;9.93;8.00;;;;;;;27.63;52.26;100808.84;5012059;28;20058;-79
2022/07/28 07:02:58;;;;;;;9.70;7.47;;;;;;;27.61;52.53;100807.19;5013535;28;20049;-79
2022/07/28 07:05:30;;;;;;;8.75;7.43;;;;;;;27.63;52.24;100803.41;5011974;28;20045;-79
2022/07/28 07:07:59;;;;;;;7.53;6.80;;;;;;;27.62;52.64;100802.56;5013453;28;20049;-79
2022/07/28 07:10:26;;;;;;;9.15;8.07;;;;;;;27.61;52.47;100796.28;5014086;28;20054;-79
2022/07/28 07:12:53;;;;;;;8.77;7.88;;;;;;;27.63;52.35;100795.25;5014121;28;20046;-79
2022/07/28 07:15:21;;;;;;;8.75;7.53;;;;;;;27.63;52.31;100798.84;5011750;28;20061;-81
2022/07/28 07:17:48;;;;;;;9.25;8.27;;;;;;;27.61;52.10;100790.00;5013361;28;20514;-79
2022/07/28 07:20:16;;;;;;;7.55;6.85;;;;;;;27.61;52.65;100788.13;5024230;28;20053;-78
2022/07/28 07:22:46;;;;;;;7.70;6.90;;;;;;;27.63;53.18;100785.25;5032870;28;20068;-78
2022/07/28 07:25:16;;;;;;;7.85;7.03;;;;;;;27.65;52.71;100790.50;5031657;28;20507;-76
2022/07/28 07:27:46;;;;;;;8.55;7.15;;;;;;;27.67;53.00;100793.84;5033689;28;20060;-79
2022/07/28 07:30:15;;;;;;;7.82;6.88;;;;;;;27.69;52.79;100791.78;5032712;28;20056;-80
2022/07/28 07:32:43;;;;;;;9.68;7.18;;;;;;;27.70;52.78;100788.88;5032957;28;20048;-79
2022/07/28 07:35:11;;;;;;;7.88;7.07;;;;;;;27.73;52.51;100787.66;5036801;28;20054;-79
2022/07/28 07:37:38;;;;;;;9.48;6.95;;;;;;;27.75;52.77;100783.78;5032647;28;20046;-78
2022/07/28 07:40:07;;;;;;;9.02;6.38;;;;;;;27.79;52.67;100786.94;5032262;28;20044;-79
2022/07/28 07:42:35;;;;;;;7.22;6.47;;;;;;;27.82;52.79;100792.00;5032313;28;20037;-78
2022/07/28 07:45:03;;;;;;;9.52;6.97;;;;;;;27.83;52.90;100788.25;5031905;28;20053;-78
2022/07/28 07:47:30;;;;;;;7.47;6.75;;;;;;;27.85;52.57;100791.63;5031994;28;20080;-78
2022/07/28 07:49:57;;;;;;;8.45;7.43;;;;;;;27.87;52.78;100792.28;5031742;28;20057;-78
2022/07/28 07:52:30;;;;;;;8.60;7.38;;;;;;;27.91;53.32;100792.75;5031852;28;20521;-78
2022/07/28 07:54:57;;;;;;;9.13;7.10;;;;;;;27.95;53.64;100794.03;5031689;28;20045;-78
2022/07/28 07:57:24;;;;;;;7.45;6.72;;;;;;;27.96;53.67;100790.31;5032966;28;20516;-78
2022/07/28 07:59:52;;;;;;;6.90;6.28;;;;;;;27.97;53.28;100789.28;5031878;28;20393;-78
2022/07/28 08:02:19;;;;;;;7.50;6.75;;;;;;;27.97;52.74;100792.84;5032569;28;20400;-78
2022/07/28 08:04:46;;;;;;;6.93;6.32;;;;;;;27.99;53.20;100798.91;5030687;28;20060;-78
2022/07/28 08:07:14;;;;;;;7.38;6.68;;;;;;;27.99;54.04;100798.91;5031600;28;20049;-78
2022/07/28 08:09:41;;;;;;;7.38;6.25;;;;;;;27.98;54.09;100799.97;5030722;28;20050;-79
2022/07/28 08:12:09;;;;;;;7.93;7.22;;;;;;;27.98;54.08;100796.41;5031790;28;20049;-78
2022/07/28 08:14:36;;;;;;;7.03;6.38;;;;;;;28.00;53.61;100799.78;5031651;28;20476;-79
2022/07/28 08:17:03;;;;;;;7.10;6.40;;;;;;;28.01;54.08;100802.31;5031740;28;20049;-78
2022/07/28 08:19:31;;;;;;;9.18;6.78;;;;;;;28.00;53.75;100800.63;5031902;28;20500;-78
2022/07/28 08:22:00;;;;;;;8.40;6.13;;;;;;;28.00;53.92;100799.78;5032241;28;20492;-78
2022/07/28 08:24:27;;;;;;;8.40;6.82;;;;;;;27.99;54.04;100809.81;5031072;28;20484;-78
2022/07/28 08:27:01;;;;;;;7.18;6.50;;;;;;;28.00;53.73;100808.78;5030326;28;20488;-78
2022/07/28 08:29:29;;;;;;;8.10;6.80;;;;;;;28.02;53.75;100809.44;5030749;28;20042;-78
2022/07/28 08:31:56;;;;;;;7.45;6.40;;;;;;;28.01;54.07;100804.19;5063386;28;20050;-78
2022/07/28 08:34:24;;;;;;;7.47;6.75;;;;;;;28.01;53.96;100805.03;5031507;28;20060;-78
2022/07/28 08:36:58;;;;;;;7.72;6.80;;;;;;;28.01;53.65;100802.31;5031343;28;20053;-78
2022/07/28 08:39:25;;;;;;;7.50;6.80;;;;;;;28.02;54.50;100805.88;5031331;28;20048;-78
2022/07/28 08:42:05;;;;;;;6.95;6.25;;;;;;;28.04;54.08;100815.53;5062694;28;20061;-78
2022/07/28 08:44:50;;;;;;;7.80;6.88;;;;;;;28.07;54.00;100809.69;5031604;28;20046;-78
2022/07/28 08:47:18;;;;;;;8.02;7.32;;;;;;;28.10;54.18;100813.91;5030577;28;20054;-78
2022/07/28 08:49:48;;;;;;;8.88;6.82;;;;;;;28.12;54.09;100813.75;5031049;28;20485;-78
2022/07/28 08:52:18;;;;;;;8.80;7.57;;;;;;;28.12;54.21;100817.31;5031926;28;20045;-79
2022/07/28 08:54:48;;;;;;;8.27;7.15;;;;;;;28.13;53.86;100813.56;5031701;28;20053;-79
2022/07/28 08:57:26;;;;;;;7.63;6.90;;;;;;;28.15;54.01;100816.06;5030348;28;20045;-79
2022/07/28 08:59:54;;;;;;;7.15;6.50;;;;;;;28.15;53.70;100807.91;5031843;28;20042;-78
2022/07/28 09:02:26;;;;;;;7.35;6.47;;;;;;;28.17;53.58;100816.75;5031613;28;20056;-79
2022/07/28 09:04:54;;;;;;;7.03;6.40;;;;;;;28.17;53.72;100822.19;5031785;28;20049;-79
2022/07/28 09:07:22;;;;;;;7.50;6.80;;;;;;;28.17;53.62;100824.91;5031788;28;20481;-79
2022/07/28 09:09:50;;;;;;;6.88;6.18;;;;;;;28.19;53.66;100822.81;5029398;28;20049;-79
2022/07/28 09:12:23;;;;;;;7.10;6.45;;;;;;;28.19;53.25;100811.94;5030799;28;20060;-79
2022/07/28 09:14:53;;;;;;;7.28;6.60;;;;;;;28.19;53.19;100812.78;5031554;28;20045;-78
2022/07/28 09:17:21;;;;;;;7.78;6.78;;;;;;;28.20;53.59;100819.94;5031271;28;20045;-78
2022/07/28 09:19:48;;;;;;;7.15;6.45;;;;;;;28.20;53.27;100810.91;5031229;28;20053;-79
2022/07/28 09:22:15;;;;;;;6.40;5.82;;;;;;;28.21;53.34;100813.44;5031437;28;20041;-78
2022/07/28 09:24:45;;;;;;;6.60;6.00;;;;;;;28.22;53.34;100808.84;5031954;28;20068;-79
2022/07/28 09:27:14;;;;;;;7.05;5.97;;;;;;;28.23;53.23;100805.06;5030823;28;20060;-78
2022/07/28 09:29:59;;;;;;;6.90;6.20;;;;;;;28.23;53.57;100813.25;5031631;28;20374;-78
2022/07/28 09:32:26;;;;;;;6.55;5.90;;;;;;;28.24;53.33;100812.22;5034110;28;20060;-78
2022/07/28 09:34:53;;;;;;;8.20;7.35;;;;;;;28.24;53.43;100807.63;5030136;28;20053;-78
2022/07/28 09:37:24;;;;;;;7.20;6.50;;;;;;;28.24;53.56;100810.34;5032073;28;20052;-78
2022/07/28 09:39:59;;;;;;;6.90;6.30;;;;;;;28.25;53.25;100808.47;5032587;28;20076;-79
2022/07/28 09:42:45;;;;;;;7.25;6.53;;;;;;;28.26;53.21;100804.69;5030938;28;20045;-78
2022/07/28 09:45:12;;;;;;;5.82;5.30;;;;;;;28.26;53.47;100815.59;5030036;28;20049;-78
2022/07/28 09:48:08;;;;;;;8.23;6.30;;;;;;;28.26;53.67;100804.69;5031922;28;20053;-78
2022/07/28 09:50:37;;;;;;;7.43;5.60;;;;;;;28.26;53.30;100800.09;5030530;28;20476;-78
2022/07/28 09:53:25;;;;;;;5.70;5.20;;;;;;;28.27;53.38;100804.50;5030465;28;20481;-79
2022/07/28 09:55:55;;;;;;;6.93;6.22;;;;;;;28.28;53.51;100805.38;5030965;28;20053;-79
2022/07/28 09:58:23;;;;;;;6.80;6.13;;;;;;;28.29;53.38;100804.31;5030354;28;20076;-79
2022/07/28 10:01:09;;;;;;;6.47;5.88;;;;;;;28.29;53.51;100798.88;5030986;28;20064;-79
2022/07/28 10:03:41;;;;;;;6.88;6.18;;;;;;;28.30;53.62;100798.66;5031709;28;20380;-79
2022/07/28 10:06:23;;;;;;;7.30;6.63;;;;;;;28.29;53.15;100799.72;5031307;28;20046;-79
2022/07/28 10:08:51;;;;;;;6.38;5.80;;;;;;;28.30;53.32;100801.41;5028910;28;20409;-79
2022/07/28 10:11:25;;;;;;;6.72;6.05;;;;;;;28.30;53.64;100793.22;5030979;28;20050;-79
2022/07/28 10:14:01;;;;;;;6.45;5.85;;;;;;;28.32;53.20;100795.78;5030874;28;20397;-79
2022/07/28 10:16:41;;;;;;;6.93;6.22;;;;;;;28.31;53.17;100788.63;5028833;27;20060;-79
2022/07/28 10:19:08;;;;;;;6.75;6.15;;;;;;;28.31;53.77;100797.63;5030807;28;20473;-79
2022/07/28 10:21:44;;;;;;;6.10;5.57;;;;;;;28.31;53.47;100792.19;5030053;28;20048;-79
2022/07/28 10:24:19;;;;;;;6.28;5.68;;;;;;;28.32;53.46;100788.44;5030309;28;20045;-79
2022/07/28 10:26:47;;;;;;;6.90;6.18;;;;;;;28.33;53.49;100792.00;5062473;28;20054;-79
2022/07/28 10:29:16;;;;;;;7.25;6.15;;;;;;;28.32;53.25;100793.91;5029243;28;20061;-79
2022/07/28 10:31:54;;;;;;;6.72;6.13;;;;;;;28.33;53.69;100787.41;5029913;28;20045;-79
2022/07/28 10:34:37;;;;;;;6.68;6.07;;;;;;;28.34;53.03;100785.53;5029454;28;20068;-79
2022/07/28 10:37:11;;;;;;;6.95;6.35;;;;;;;28.34;53.50;100788.25;5031542;28;20392;-79
2022/07/28 10:39:41;;;;;;;7.18;5.72;;;;;;;28.35;53.00;100781.75;5044671;28;20405;-79
2022/07/28 10:42:11;;;;;;;6.53;5.93;;;;;;;28.35;53.00;100776.31;5028476;28;20041;-79
2022/07/28 10:44:40;;;;;;;7.05;6.25;;;;;;;28.36;53.53;100780.78;5028467;28;20489;-79
2022/07/28 10:47:09;;;;;;;6.38;5.78;;;;;;;28.35;53.20;100779.88;5029595;28;20052;-79
2022/07/28 10:49:47;;;;;;;6.07;5.47;;;;;;;28.36;53.37;100775.31;5027814;28;20049;-79
2022/07/28 10:52:19;;;;;;;6.30;5.70;;;;;;;28.36;53.31;100778.06;5028937;28;20046;-79
2022/07/28 10:55:06;;;;;;;6.15;5.30;;;;;;;28.38;53.46;100783.28;5031177;28;20048;-79
2022/07/28 10:57:41;;;;;;;6.57;5.97;;;;;;;28.37;53.35;100787.91;5029700;28;20053;-79
2022/07/28 11:00:24;;;;;;;6.63;5.97;;;;;;;28.38;53.55;100778.69;5029913;28;20409;-79
2022/07/28 11:02:56;;;;;;;6.53;5.93;;;;;;;28.38;53.10;100767.78;5030198;28;20050;-79
2022/07/28 11:05:37;;;;;;;6.38;5.72;;;;;;;28.38;53.27;100770.50;5029901;28;20057;-78
2022/07/28 11:08:09;;;;;;;7.70;5.95;;;;;;;28.38;52.98;100764.22;5030108;28;20061;-79
2022/07/28 11:10:50;;;;;;;6.82;5.90;;;;;;;28.40;52.92;100770.31;5032505;28;20473;-79
2022/07/28 11:13:23;;;;;;;6.38;5.78;;;;;;;28.39;53.06;100764.03;5033609;28;20072;-79
2022/07/28 11:16:14;;;;;;;6.63;6.03;;;;;;;28.40;52.79;100776.63;5032162;28;20146;-79
2022/07/28 11:19:00;;;;;;;6.47;5.88;;;;;;;28.41;53.03;100766.56;5033196;28;20041;-79
2022/07/28 11:21:31;;;;;;;6.30;5.72;;;;;;;28.41;53.14;100758.41;5033024;28;20053;-79
2022/07/28 11:24:09;;;;;;;5.95;5.43;;;;;;;28.40;52.88;100763.00;5033472;28;20377;-78
2022/07/28 11:26:44;;;;;;;5.78;5.28;;;;;;;28.41;53.08;100753.81;5033071;28;20046;-79
2022/07/28 11:29:11;;;;;;;6.45;5.85;;;;;;;28.41;53.25;100756.53;5032697;28;20061;-79
2022/07/28 11:31:47;;;;;;;6.43;5.82;;;;;;;28.42;52.86;100739.13;5033198;28;20076;-79
2022/07/28 11:34:23;;;;;;;7.45;5.78;;;;;;;28.41;53.19;100733.91;5033386;28;20056;-79
2022/07/28 11:36:56;;;;;;;6.15;5.47;;;;;;;28.42;53.21;100730.97;5032792;28;20401;-79
2022/07/28 11:39:25;;;;;;;5.75;5.25;;;;;;;28.43;53.19;100729.09;5031144;28;20044;-78
2022/07/28 11:41:53;;;;;;;6.40;5.72;;;;;;;28.41;53.00;100726.56;5030894;28;20052;-79